Time;durP1;ratioP1;P1;durP2;ratioP2;P2;SDS_P1;SDS_P2;PMS_P1;PMS_P2;Temp;Humidity;BMP_temperature;BMP_pressure;BME280_temperature;BME280_humidity;BME280_pressure;Samples;Min_cycle;Max_cycle;Signal;HPM_P1;HPM_P2
2022/05/19 00:01:06;;;;;;;31.47;17.73;;;;;;;9.29;100.00;100449.41;5040718;28;20618;-86
2022/05/19 00:03:33;;;;;;;33.30;18.67;;;;;;;9.39;100.00;100455.94;5031606;28;20649;-86
2022/05/19 00:06:00;;;;;;;31.43;17.17;;;;;;;8.87;100.00;100371.69;5032419;28;20255;-86
2022/05/19 00:08:25;;;;;;;30.17;17.37;;;;;;;9.00;100.00;100382.59;5032501;28;20154;-86
2022/05/19 00:10:52;;;;;;;29.43;16.17;;;;;;;9.48;100.00;100452.34;5032787;28;20732;-86
2022/05/19 00:13:17;;;;;;;29.73;15.87;;;;;;;7.63;100.00;100140.53;5032455;28;20155;-86
2022/05/19 00:15:43;;;;;;;27.03;16.07;;;;;;;8.90;100.00;100336.53;5032982;28;20717;-86
2022/05/19 00:18:08;;;;;;;27.33;15.90;;;;;;;8.95;100.00;100348.59;5032328;28;20185;-85
2022/05/19 00:20:34;;;;;;;27.03;16.33;;;;;;;7.13;100.00;100081.72;5032327;28;20212;-86
2022/05/19 00:23:00;;;;;;;29.33;15.87;;;;;;;6.54;100.00;99960.25;5032809;28;20209;-86
2022/05/19 00:25:25;;;;;;;28.87;16.67;;;;;;;7.66;100.00;100144.09;5032004;28;20172;-86
2022/05/19 00:27:50;;;;;;;30.07;16.00;;;;;;;9.55;100.00;100471.31;5032092;28;20523;-85
2022/05/19 00:30:16;;;;;;;29.20;15.67;;;;;;;8.50;100.00;100241.34;5032182;28;20273;-87
2022/05/19 00:32:41;;;;;;;29.60;15.80;;;;;;;9.08;100.00;100341.94;5031803;28;20166;-87
2022/05/19 00:35:07;;;;;;;34.43;16.60;;;;;;;9.38;100.00;100428.91;5031813;28;20194;-87
2022/05/19 00:37:33;;;;;;;27.73;15.83;;;;;;;8.40;100.00;100249.09;5031827;28;20159;-87
2022/05/19 00:39:58;;;;;;;31.53;16.50;;;;;;;6.77;100.00;99979.41;5032116;28;20169;-86
2022/05/19 00:45:08;;;;;;;43.20;16.90;;;;;;;9.19;100.00;100415.88;5032122;28;20164;-85
2022/05/19 00:48:02;;;;;;;39.13;15.33;;;;;;;9.23;100.00;100422.88;5031240;28;20660;-85
2022/05/19 00:50:53;;;;;;;34.73;16.53;;;;;;;9.26;100.00;100453.38;4964931;28;20232;-87
2022/05/19 00:53:35;;;;;;;27.17;14.57;;;;;;;9.29;100.00;100449.41;4938986;29;20221;-86
2022/05/19 00:56:05;;;;;;;22.27;12.33;;;;;;;8.35;100.00;100313.50;4932040;29;20276;-86
2022/05/19 00:58:40;;;;;;;23.77;13.13;;;;;;;8.99;100.00;100443.97;4951425;29;20204;-86
2022/05/19 01:01:06;;;;;;;24.20;14.10;;;;;;;8.85;100.00;100446.47;4951858;29;20180;-85
2022/05/19 01:03:40;;;;;;;24.50;13.80;;;;;;;8.55;100.00;100385.47;4929535;29;20197;-85
2022/05/19 01:06:18;;;;;;;25.70;13.80;;;;;;;7.99;100.00;100300.91;4951205;29;20176;-85
2022/05/19 01:08:52;;;;;;;32.83;13.47;;;;;;;5.24;100.00;99867.25;4951369;29;20195;-85
2022/05/19 01:11:18;;;;;;;42.23;14.77;;;;;;;8.58;100.00;100446.25;4951579;29;20197;-86
2022/05/19 01:13:44;;;;;;;31.73;15.60;;;;;;;8.68;100.00;100448.66;4951328;29;20425;-86
2022/05/19 01:16:10;;;;;;;29.53;15.83;;;;;;;7.05;100.00;100133.19;4951439;29;20958;-86
2022/05/19 01:18:37;;;;;;;28.23;14.07;;;;;;;9.07;100.00;100451.28;4948463;29;21012;-86
2022/05/19 01:21:03;;;;;;;25.30;14.20;;;;;;;6.30;100.00;100001.31;4931931;29;20213;-86
2022/05/19 01:23:40;;;;;;;26.53;14.50;;;;;;;9.17;100.00;100457.84;4926567;29;20272;-86
2022/05/19 01:26:28;;;;;;;21.60;12.60;;;;;;;8.32;100.00;100355.31;4932452;29;20786;-86
2022/05/19 01:28:55;;;;;;;23.30;11.53;;;;;;;8.62;100.00;100450.75;5031681;28;20634;-86
2022/05/19 01:31:32;;;;;;;19.07;10.53;;;;;;;8.40;100.00;100443.38;5031899;28;20186;-86
2022/05/19 01:33:58;;;;;;;17.83;10.17;;;;;;;8.35;100.00;100411.88;5032234;28;20484;-86
2022/05/19 01:36:24;;;;;;;20.70;11.10;;;;;;;7.63;100.00;100297.63;5035316;28;20799;-86
2022/05/19 01:39:18;;;;;;;22.13;12.13;;;;;;;8.66;100.00;100445.13;5033492;28;20182;-86
2022/05/19 01:41:52;;;;;;;22.50;12.70;;;;;;;8.39;100.00;100450.81;4989922;28;20257;-86
2022/05/19 01:44:48;;;;;;;22.63;13.20;;;;;;;8.30;100.00;100454.47;4996388;28;20403;-87
2022/05/19 01:47:31;;;;;;;22.50;12.53;;;;;;;8.34;100.00;100448.00;4997505;28;20522;-86
2022/05/19 01:50:00;;;;;;;23.90;12.23;;;;;;;8.41;100.00;100449.28;4976565;28;20949;-83
2022/05/19 01:52:43;;;;;;;20.60;11.37;;;;;;;8.28;100.00;100445.94;4978162;28;20466;-85
2022/05/19 01:55:16;;;;;;;19.30;11.47;;;;;;;8.26;100.00;100446.56;4993394;28;21028;-85
2022/05/19 01:58:09;;;;;;;18.07;10.33;;;;;;;6.43;100.00;100128.75;4999318;28;20449;-84
2022/05/19 02:00:35;;;;;;;18.17;10.20;;;;;;;8.11;100.00;100422.78;5022753;28;20436;-84
2022/05/19 02:03:09;;;;;;;18.53;9.90;;;;;;;8.03;100.00;100401.19;5019938;28;20405;-85
2022/05/19 02:05:44;;;;;;;16.33;9.73;;;;;;;8.25;100.00;100452.38;5033660;28;20179;-85
2022/05/19 02:08:20;;;;;;;15.07;9.23;;;;;;;7.42;100.00;100296.13;5037186;28;20402;-83
2022/05/19 02:10:50;;;;;;;17.83;9.90;;;;;;;8.24;100.00;100448.97;5000827;28;20467;-86
2022/05/19 02:13:17;;;;;;;20.67;9.93;;;;;;;6.33;100.00;100117.19;5005469;28;20427;-86
2022/05/19 02:15:45;;;;;;;18.67;9.57;;;;;;;7.02;100.00;100216.03;4976149;28;20801;-86
2022/05/19 02:18:12;;;;;;;17.13;9.63;;;;;;;6.71;100.00;100177.75;5007677;28;20452;-85
2022/05/19 02:20:41;;;;;;;17.17;8.60;;;;;;;7.79;100.00;100384.38;5015844;28;20503;-84
2022/05/19 02:23:09;;;;;;;15.23;8.93;;;;;;;7.52;100.00;100311.13;5033609;28;20410;-85
2022/05/19 02:25:44;;;;;;;15.63;8.83;;;;;;;7.20;100.00;100246.69;5015488;28;20400;-85
2022/05/19 02:28:30;;;;;;;13.87;7.80;;;;;;;7.37;100.00;100296.56;5015550;28;20427;-86
2022/05/19 02:30:56;;;;;;;14.57;8.13;;;;;;;7.06;100.00;100263.31;5022985;28;20456;-86
2022/05/19 02:33:22;;;;;;;13.47;8.20;;;;;;;8.02;100.00;100454.94;5031745;28;20940;-86
2022/05/19 02:35:48;;;;;;;13.20;8.33;;;;;;;8.09;100.00;100460.50;5032081;28;20186;-86
2022/05/19 02:38:16;;;;;;;14.80;8.60;;;;;;;8.13;100.00;100451.53;5033195;28;20800;-86
2022/05/19 02:40:42;;;;;;;15.33;8.63;;;;;;;8.02;100.00;100459.97;5033421;28;20417;-86
2022/05/19 02:43:08;;;;;;;13.63;7.90;;;;;;;7.80;100.00;100407.16;5033783;28;20408;-86
2022/05/19 02:45:35;;;;;;;15.07;9.00;;;;;;;7.20;100.00;100343.22;5033453;28;20800;-86
2022/05/19 02:48:01;;;;;;;20.03;9.20;;;;;;;8.05;100.00;100455.13;5033369;28;20711;-86
2022/05/19 02:50:28;;;;;;;15.33;7.97;;;;;;;5.19;100.00;99978.97;5033494;28;20455;-88
2022/05/19 02:52:53;;;;;;;14.83;8.77;;;;;;;6.00;100.00;100123.94;5001495;28;1206845;-85
2022/05/19 02:55:19;;;;;;;16.43;9.03;;;;;;;8.05;100.00;100467.75;5054399;28;20247;-86
2022/05/19 02:57:48;;;;;;;14.80;9.03;;;;;;;5.79;100.00;100093.94;5054052;28;20181;-85
2022/05/19 03:00:17;;;;;;;15.93;9.30;;;;;;;5.14;100.00;99962.69;5053485;28;20950;-85
2022/05/19 03:02:43;;;;;;;14.47;8.37;;;;;;;5.11;100.00;99975.88;5054597;28;20407;-85
2022/05/19 03:05:11;;;;;;;15.13;8.07;;;;;;;7.15;100.00;100344.53;5053975;28;20498;-86
2022/05/19 03:07:36;;;;;;;12.30;7.37;;;;;;;7.42;100.00;100412.00;5054143;28;20408;-86
2022/05/19 03:10:03;;;;;;;14.43;8.20;;;;;;;7.93;100.00;100467.78;5054114;28;20419;-86
2022/05/19 03:12:29;;;;;;;13.13;7.67;;;;;;;6.51;100.00;100248.38;5041859;28;20174;-86
2022/05/19 03:14:54;;;;;;;14.27;7.60;;;;;;;7.86;100.00;100468.09;5033932;28;20917;-86
2022/05/19 03:17:21;;;;;;;12.63;6.93;;;;;;;7.27;100.00;100382.31;5033701;28;20166;-87
2022/05/19 03:19:46;;;;;;;12.83;7.27;;;;;;;5.33;100.00;100046.97;5033110;28;20159;-86
2022/05/19 03:22:11;;;;;;;16.03;8.47;;;;;;;5.69;100.00;100075.56;5032481;28;20423;-86
2022/05/19 03:24:37;;;;;;;14.53;8.80;;;;;;;6.53;100.00;100215.06;5033563;28;20166;-86
2022/05/19 03:27:03;;;;;;;15.17;8.73;;;;;;;6.99;100.00;100361.81;5033433;28;20632;-85
2022/05/19 03:29:28;;;;;;;20.43;9.20;;;;;;;6.08;100.00;100179.03;5033089;28;20166;-87
2022/05/19 03:31:54;;;;;;;15.07;8.23;;;;;;;6.46;100.00;100232.97;5031787;28;20906;-85
2022/05/19 03:34:20;;;;;;;17.90;9.10;;;;;;;5.63;100.00;100107.78;5053239;28;20626;-86
2022/05/19 03:36:47;;;;;;;15.00;8.97;;;;;;;5.55;100.00;100121.41;5053102;28;20163;-85
2022/05/19 03:39:13;;;;;;;16.30;8.80;;;;;;;6.95;100.00;100369.94;5053355;28;20400;-85
2022/05/19 03:41:38;;;;;;;14.43;8.30;;;;;;;5.14;100.00;100040.47;5056580;28;20402;-84
2022/05/19 03:44:04;;;;;;;15.33;7.80;;;;;;;7.91;100.00;100512.16;5055857;28;20789;-85
2022/05/19 03:46:29;;;;;;;11.70;7.93;;;;;;;7.16;100.00;100358.88;5053866;28;20157;-85
2022/05/19 03:48:55;;;;;;;13.73;8.30;;;;;;;5.65;100.00;100083.66;5053981;28;20161;-86
2022/05/19 03:51:32;;;;;;;15.87;7.60;;;;;;;5.15;100.00;100025.56;5052663;28;20268;-85
2022/05/19 03:53:59;;;;;;;14.37;7.67;;;;;;;5.83;100.00;100107.59;5052244;28;20209;-85
2022/05/19 03:56:25;;;;;;;11.57;6.43;;;;;;;8.02;100.00;100496.13;5052190;28;20424;-86
2022/05/19 03:58:51;;;;;;;12.47;7.13;;;;;;;6.54;100.00;100209.25;5052587;28;20888;-83
2022/05/19 04:01:17;;;;;;;11.37;6.20;;;;;;;6.39;100.00;100183.00;5053394;28;20212;-85
2022/05/19 04:03:43;;;;;;;9.27;6.07;;;;;;;4.14;100.00;99788.09;5052629;28;20161;-85
2022/05/19 04:06:09;;;;;;;9.43;5.97;;;;;;;7.83;100.00;100444.34;5052569;28;20422;-84
2022/05/19 04:08:34;;;;;;;10.47;6.00;;;;;;;8.45;100.00;100500.06;5052230;28;20781;-85
2022/05/19 04:11:00;;;;;;;8.30;5.57;;;;;;;8.51;100.00;100500.50;5034449;28;20236;-84
2022/05/19 04:13:26;;;;;;;7.33;5.00;;;;;;;8.55;100.00;100510.03;5051839;28;20170;-85
2022/05/19 04:15:52;;;;;;;9.57;5.63;;;;;;;5.72;100.00;100020.53;5050400;28;20174;-85
2022/05/19 04:18:17;;;;;;;9.60;6.00;;;;;;;6.83;100.00;100186.19;5052862;28;20161;-84
2022/05/19 04:20:43;;;;;;;8.77;5.63;;;;;;;8.78;100.00;100506.56;5059583;28;20188;-84
2022/05/19 04:23:10;;;;;;;10.07;5.80;;;;;;;7.02;100.00;100190.88;5059647;28;20263;-84
2022/05/19 04:25:36;;;;;;;9.57;5.57;;;;;;;8.31;100.00;100379.66;5073708;28;20162;-85
2022/05/19 04:28:02;;;;;;;9.43;5.30;;;;;;;8.29;100.00;100381.22;5033956;28;20180;-86
2022/05/19 04:30:27;;;;;;;8.73;5.33;;;;;;;6.47;100.00;100073.78;5051083;28;20190;-85
2022/05/19 04:32:53;;;;;;;8.87;5.20;;;;;;;6.36;100.00;100052.03;5033645;28;20256;-86
2022/05/19 04:35:18;;;;;;;7.93;4.87;;;;;;;7.30;100.00;100164.31;5049824;28;20177;-85
2022/05/19 04:37:45;;;;;;;7.33;4.60;;;;;;;9.24;100.00;100510.53;5052347;28;20188;-85
2022/05/19 04:40:12;;;;;;;7.50;4.70;;;;;;;8.53;100.00;100385.38;5051837;28;20319;-85
2022/05/19 04:42:38;;;;;;;7.87;4.87;;;;;;;8.65;100.00;100383.66;5034237;28;20176;-85
2022/05/19 04:45:04;;;;;;;8.80;5.20;;;;;;;7.70;100.00;100171.25;5051826;28;20618;-85
2022/05/19 04:47:30;;;;;;;8.20;4.70;;;;;;;9.07;100.00;100417.56;5034472;28;20165;-85
2022/05/19 04:49:55;;;;;;;8.67;4.93;;;;;;;9.97;100.00;100512.00;5051792;28;20169;-84
2022/05/19 04:52:21;;;;;;;11.13;4.90;;;;;;;9.82;100.00;100517.72;5052383;28;20307;-84
2022/05/19 04:54:48;;;;;;;7.70;4.83;;;;;;;9.74;100.00;100466.66;5031709;28;20185;-84
2022/05/19 04:57:13;;;;;;;9.50;4.90;;;;;;;9.95;100.00;100513.56;5034550;28;20181;-84
2022/05/19 04:59:40;;;;;;;9.40;4.80;;;;;;;10.56;100.00;100517.41;5033203;28;20169;-84
2022/05/19 05:02:06;;;;;;;9.83;5.30;;;;;;;10.51;100.00;100522.22;5032365;28;20158;-85
2022/05/19 05:04:32;;;;;;;10.13;5.20;;;;;;;9.61;100.00;100307.41;5031539;28;20211;-85
2022/05/19 05:06:58;;;;;;;9.83;4.07;;;;;;;10.61;100.00;100532.13;5031480;28;20166;-86
2022/05/19 05:09:24;;;;;;;9.50;4.40;;;;;;;10.70;100.00;100525.84;5031412;28;20235;-86
2022/05/19 05:11:50;;;;;;;9.80;4.37;;;;;;;10.30;100.00;100467.72;5031224;28;20578;-86
2022/05/19 05:14:17;;;;;;;6.43;3.97;;;;;;;10.79;100.00;100523.88;5031835;28;20181;-85
2022/05/19 05:16:46;;;;;;;7.43;3.57;;;;;;;10.65;100.00;100480.00;5031963;28;20169;-85
2022/05/19 05:19:11;;;;;;;10.03;4.80;;;;;;;10.61;100.00;100443.47;5030999;28;20162;-85
2022/05/19 05:21:36;;;;;;;28.43;20.73;;;;;;;11.38;100.00;100533.38;5031747;28;20168;-85
2022/05/19 05:24:02;;;;;;;41.90;23.90;;;;;;;11.26;100.00;100533.53;5030068;28;20170;-86
2022/05/19 05:26:27;;;;;;;16.50;9.43;;;;;;;11.40;100.00;100544.47;5031932;28;20228;-86
2022/05/19 05:28:53;;;;;;;12.73;6.93;;;;;;;11.54;100.00;100557.94;5030550;28;20618;-85
2022/05/19 05:31:18;;;;;;;6.67;4.90;;;;;;;11.50;100.00;100548.44;5031456;28;20206;-84
2022/05/19 05:33:43;;;;;;;6.57;3.90;;;;;;;11.53;100.00;100558.75;5032411;28;20158;-86
2022/05/19 05:36:09;;;;;;;9.13;4.80;;;;;;;12.15;100.00;100547.13;5033285;28;20186;-88
2022/05/19 05:38:34;;;;;;;4.90;3.30;;;;;;;9.98;100.00;100232.09;5024473;28;20225;-84
2022/05/19 05:41:02;;;;;;;4.67;2.90;;;;;;;11.59;100.00;100521.94;5031338;28;20194;-84
2022/05/19 05:43:27;;;;;;;12.47;7.37;;;;;;;12.01;100.00;100550.56;5018375;28;20198;-83
2022/05/19 05:45:53;;;;;;;7.07;4.60;;;;;;;11.24;100.00;100408.38;5051883;28;20201;-84
2022/05/19 05:48:19;;;;;;;5.03;3.50;;;;;;;11.90;100.00;100483.97;5051949;28;20178;-84
2022/05/19 05:50:44;;;;;;;7.73;3.60;;;;;;;11.60;100.00;100347.81;5039565;28;20686;-83
2022/05/19 05:53:10;;;;;;;19.30;8.30;;;;;;;12.63;100.00;100511.72;5038031;28;20222;-86
2022/05/19 05:55:37;;;;;;;10.93;6.13;;;;;;;12.56;100.00;100547.72;5058350;28;20196;-86
2022/05/19 05:58:07;;;;;;;10.07;5.67;;;;;;;12.21;100.00;100535.66;5068300;28;20732;-85
2022/05/19 06:00:33;;;;;;;8.70;4.73;;;;;;;12.59;100.00;100545.34;5058031;28;20212;-86
2022/05/19 06:02:59;;;;;;;4.73;3.10;;;;;;;12.04;100.00;100500.84;5055453;28;20461;-87
2022/05/19 06:05:24;;;;;;;4.43;2.67;;;;;;;12.11;100.00;100497.00;5052842;28;20185;-85
2022/05/19 06:07:50;;;;;;;4.17;2.50;;;;;;;12.46;100.00;100537.88;5055019;28;20176;-87
2022/05/19 06:10:15;;;;;;;6.40;2.80;;;;;;;12.11;100.00;100444.56;5054050;28;20196;-85
2022/05/19 06:12:41;;;;;;;7.17;3.00;;;;;;;12.82;100.00;100501.72;5036072;28;20185;-85
2022/05/19 06:15:10;;;;;;;4.63;2.90;;;;;;;12.62;100.00;100404.91;5037065;28;20181;-86
2022/05/19 06:17:39;;;;;;;6.10;3.10;;;;;;;11.90;100.00;100237.84;5055490;28;20195;-86
2022/05/19 06:20:05;;;;;;;3.83;2.80;;;;;;;13.19;100.00;100424.81;5058216;28;20195;-85
2022/05/19 06:22:31;;;;;;;8.53;3.03;;;;;;;13.32;100.00;100402.59;5037017;28;20185;-86
2022/05/19 06:24:57;;;;;;;4.93;2.60;;;;;;;13.43;100.00;100480.28;5036141;28;20220;-85
2022/05/19 06:27:22;;;;;;;3.63;2.40;;;;;;;13.03;100.00;100431.66;5036258;28;20680;-85
2022/05/19 06:29:48;;;;;;;3.97;2.60;;;;;;;13.08;100.00;100421.72;5054209;28;20184;-85
2022/05/19 06:32:13;;;;;;;5.90;2.50;;;;;;;13.58;100.00;100544.66;5053960;28;20957;-85
2022/05/19 06:34:39;;;;;;;6.37;2.60;;;;;;;14.20;100.00;100554.50;5056815;28;20193;-85
2022/05/19 06:37:04;;;;;;;3.87;2.40;;;;;;;13.89;100.00;100521.59;5054760;28;20676;-86
2022/05/19 06:39:29;;;;;;;3.97;2.03;;;;;;;12.70;100.00;100348.63;5065387;28;20239;-85
2022/05/19 06:42:01;;;;;;;4.20;2.40;;;;;;;12.98;100.00;100353.41;5069773;28;20658;-85
2022/05/19 06:44:32;;;;;;;14.60;6.37;;;;;;;12.14;100.00;100106.25;5059532;28;20250;-86
2022/05/19 06:46:58;;;;;;;9.23;3.87;;;;;;;14.37;100.00;100418.59;5054135;28;20247;-85
2022/05/19 06:49:25;;;;;;;12.87;4.97;;;;;;;15.51;100.00;100546.03;5053237;28;20187;-84
2022/05/19 06:51:50;;;;;;;10.27;5.43;;;;;;;15.07;100.00;100509.28;5053141;28;20213;-86
2022/05/19 06:54:16;;;;;;;7.97;3.40;;;;;;;15.16;100.00;100552.16;5054432;28;20291;-84
2022/05/19 06:56:41;;;;;;;4.53;2.30;;;;;;;14.62;100.00;100551.44;5072752;28;20184;-84
2022/05/19 06:59:07;;;;;;;3.10;2.40;;;;;;;13.99;100.00;100399.03;5056390;28;20184;-84
2022/05/19 07:01:33;;;;;;;3.83;2.50;;;;;;;14.44;100.00;100468.19;5027194;28;20274;-84
2022/05/19 07:04:00;;;;;;;3.33;2.40;;;;;;;15.02;100.00;100518.41;5030825;28;20461;-84
2022/05/19 07:06:25;;;;;;;7.57;2.70;;;;;;;14.50;100.00;100484.59;5035572;28;20210;-85
2022/05/19 07:08:51;;;;;;;3.57;2.20;;;;;;;14.29;100.00;100356.22;5033983;28;20271;-85
2022/05/19 07:11:26;;;;;;;5.07;2.47;;;;;;;15.25;100.00;100486.22;5039900;28;20700;-87
2022/05/19 07:14:01;;;;;;;7.17;3.77;;;;;;;15.94;100.00;100537.66;5055655;28;20267;-86
2022/05/19 07:16:28;;;;;;;6.07;2.37;;;;;;;15.94;100.00;100540.22;5055375;28;20659;-86
2022/05/19 07:21:42;;;;;;;4.00;2.20;;;;;;;15.73;74.26;100536.81;5036328;28;20201;-88
2022/05/19 07:24:09;;;;;;;3.07;2.10;;;;;;;15.22;74.23;100384.03;5035223;28;20185;-87
2022/05/19 07:26:34;;;;;;;5.03;1.90;;;;;;;16.13;69.17;100548.59;5036516;28;20182;-87
2022/05/19 07:29:00;;;;;;;12.93;2.10;;;;;;;15.55;70.04;100372.66;5036219;28;20562;-87
2022/05/19 07:31:25;;;;;;;5.80;2.00;;;;;;;15.66;69.57;100356.06;5044596;28;20247;-87
2022/05/19 07:33:50;;;;;;;3.57;2.20;;;;;;;15.63;68.59;100363.63;5075149;28;20188;-87
2022/05/19 07:36:16;;;;;;;6.23;2.33;;;;;;;17.15;67.88;100558.50;5073730;28;20693;-87
2022/05/19 07:38:41;;;;;;;4.87;2.27;;;;;;;16.39;68.28;100386.94;5063762;28;20232;-87
2022/05/19 07:41:07;;;;;;;6.43;2.33;;;;;;;17.31;67.91;100523.25;5024023;28;20239;-88
2022/05/19 07:43:39;;;;;;;4.43;2.00;;;;;;;17.08;66.67;100473.84;5033113;28;20261;-87
2022/05/19 07:46:05;;;;;;;3.60;2.43;;;;;;;17.43;64.85;100453.69;5035397;28;20273;-87
2022/05/19 07:48:31;;;;;;;8.70;2.00;;;;;;;16.08;61.76;100212.91;5032864;28;20195;-85
2022/05/19 07:50:57;;;;;;;3.97;1.90;;;;;;;17.34;59.19;100418.41;5041635;28;20356;-85
2022/05/19 07:53:23;;;;;;;7.67;2.30;;;;;;;18.61;59.50;100549.78;5046321;28;20221;-86
2022/05/19 07:55:48;;;;;;;4.17;2.00;;;;;;;18.51;60.29;100537.50;5052016;28;20555;-86
2022/05/19 07:58:13;;;;;;;4.90;2.30;;;;;;;17.99;60.12;100412.84;5052286;28;20235;-88
2022/05/19 08:00:40;;;;;;;3.97;2.00;;;;;;;17.84;57.84;100411.50;5051400;28;20204;-88
2022/05/19 08:03:06;;;;;;;3.47;2.10;;;;;;;18.42;58.92;100543.19;5053688;28;20188;-87
2022/05/19 08:05:32;;;;;;;5.23;2.50;;;;;;;17.52;58.06;100439.53;5039407;28;20195;-88
2022/05/19 08:07:57;;;;;;;4.20;1.93;;;;;;;17.50;58.31;100363.44;5056264;28;20181;-87
2022/05/19 08:10:25;;;;;;;6.53;2.50;;;;;;;18.81;56.75;100510.19;5036856;28;20659;-87
2022/05/19 08:15:38;;;;;;;4.73;2.33;;;;;;;18.01;54.69;100406.09;5033123;28;20564;-85
2022/05/19 08:18:10;;;;;;;4.57;2.30;;;;;;;19.33;55.90;100528.75;5043732;28;20199;-88
2022/05/19 08:20:39;;;;;;;3.50;2.30;;;;;;;19.65;55.56;100545.03;5050671;28;20186;-86
2022/05/19 08:23:07;;;;;;;4.40;1.93;;;;;;;18.94;54.75;100540.50;5031048;28;20188;-86
2022/05/19 08:25:33;;;;;;;2.97;2.10;;;;;;;17.25;58.25;100400.19;5031985;28;20630;-85
2022/05/19 08:27:59;;;;;;;4.03;2.20;;;;;;;18.15;57.13;100496.19;5031438;28;20178;-86
2022/05/19 08:30:25;;;;;;;6.97;2.60;;;;;;;19.06;56.08;100535.72;5049644;28;20182;-87
2022/05/19 08:32:50;;;;;;;2.20;2.00;;;;;;;18.77;56.19;100536.56;5033315;28;20182;-86
2022/05/19 08:35:16;;;;;;;4.63;2.07;;;;;;;18.13;55.44;100444.88;5038195;28;20193;-87
2022/05/19 08:37:42;;;;;;;4.17;2.17;;;;;;;18.16;55.54;100415.91;5022103;28;20609;-83
2022/05/19 08:40:08;;;;;;;5.00;3.33;;;;;;;17.62;53.19;100264.00;5032280;28;20269;-84
2022/05/19 08:42:37;;;;;;;5.03;2.87;;;;;;;19.41;51.48;100462.22;5031959;28;20190;-84
2022/05/19 08:45:05;;;;;;;3.70;1.90;;;;;;;19.41;47.97;100522.16;5033259;28;20182;-84
2022/05/19 08:47:37;;;;;;;9.77;3.80;;;;;;;17.45;49.48;100103.88;5033673;28;20261;-84
2022/05/19 08:50:05;;;;;;;11.30;4.17;;;;;;;20.39;47.75;100534.00;5043103;28;20267;-84
2022/05/19 08:52:45;;;;;;;5.23;2.13;;;;;;;20.08;46.66;100539.22;5073022;28;20641;-84
2022/05/19 08:55:14;;;;;;;4.27;1.77;;;;;;;20.50;44.21;100539.38;5072749;28;20184;-83
2022/05/19 08:57:48;;;;;;;3.67;1.80;;;;;;;20.60;39.62;100544.75;5066465;28;20172;-84
2022/05/19 09:00:31;;;;;;;5.03;2.20;;;;;;;20.42;39.39;100507.47;5070749;28;20189;-84
2022/05/19 09:03:27;;;;;;;5.30;2.40;;;;;;;20.83;39.58;100495.47;5037718;28;20190;-83
2022/05/19 09:06:02;;;;;;;4.23;1.70;;;;;;;20.63;39.27;100527.66;5032836;28;20209;-84
2022/05/19 09:08:49;;;;;;;3.17;2.00;;;;;;;19.86;39.84;100530.13;5034538;28;20196;-84
2022/05/19 09:11:45;;;;;;;2.23;1.70;;;;;;;18.89;39.58;100372.69;5032940;28;20210;-84
2022/05/19 09:14:20;;;;;;;4.37;2.00;;;;;;;20.35;38.06;100519.34;4970167;28;20258;-82
2022/05/19 09:16:47;;;;;;;2.93;1.90;;;;;;;20.84;36.28;100520.38;4972064;28;20195;-85
2022/05/19 09:19:48;;;;;;;5.37;1.90;;;;;;;21.20;37.54;100521.13;4973762;28;20200;-83
2022/05/19 09:22:19;;;;;;;4.10;1.70;;;;;;;19.41;35.66;100161.72;4938787;29;20697;-83
2022/05/19 09:24:48;;;;;;;4.53;1.90;;;;;;;20.98;35.79;100514.69;4955513;29;20287;-83
2022/05/19 09:27:14;;;;;;;5.67;2.50;;;;;;;19.80;35.62;100324.41;4955271;29;20190;-83
2022/05/19 09:29:46;;;;;;;4.03;2.30;;;;;;;20.85;34.89;100468.06;4939278;29;20192;-84
2022/05/19 09:32:29;;;;;;;3.70;2.33;;;;;;;21.70;34.25;100507.41;4926389;29;20220;-84
2022/05/19 09:35:14;;;;;;;5.63;2.47;;;;;;;21.50;34.14;100466.72;4939588;29;20312;-84
2022/05/19 09:37:43;;;;;;;3.23;2.03;;;;;;;21.07;35.11;100476.22;4939762;29;20675;-85
2022/05/19 09:40:11;;;;;;;3.47;1.80;;;;;;;20.94;37.04;100501.69;4926731;29;20239;-84
2022/05/19 09:42:48;;;;;;;4.63;2.17;;;;;;;20.97;36.52;100481.16;4935554;29;20201;-84
2022/05/19 09:45:14;;;;;;;3.20;1.90;;;;;;;20.84;34.53;100499.78;4936275;29;20303;-84
2022/05/19 09:47:43;;;;;;;2.50;2.10;;;;;;;21.02;34.84;100469.22;4935429;29;20209;-84
2022/05/19 09:50:22;;;;;;;3.90;1.80;;;;;;;21.47;33.47;100492.41;4937157;28;20295;-84
2022/05/19 09:52:48;;;;;;;4.20;2.00;;;;;;;21.16;34.40;100480.69;4974423;28;20238;-84
2022/05/19 09:55:16;;;;;;;4.33;2.20;;;;;;;19.90;34.36;100264.63;4962128;28;20188;-84
2022/05/19 09:57:46;;;;;;;2.70;2.10;;;;;;;21.46;34.62;100481.25;5033568;28;20295;-85
2022/05/19 10:00:37;;;;;;;4.17;2.10;;;;;;;21.60;34.79;100484.03;5028971;28;20182;-83
2022/05/19 10:03:09;;;;;;;3.93;2.13;;;;;;;20.16;34.31;100334.56;5012678;28;20736;-84
2022/05/19 10:05:45;;;;;;;4.47;1.90;;;;;;;21.41;35.05;100480.28;5014010;28;20198;-84
2022/05/19 10:08:34;;;;;;;3.10;1.97;;;;;;;21.55;34.50;100411.81;5014997;28;20181;-86
2022/05/19 10:11:06;;;;;;;5.97;2.20;;;;;;;20.28;36.48;100267.97;4943829;29;20312;-86
2022/05/19 10:13:42;;;;;;;5.33;1.90;;;;;;;20.58;37.00;100463.22;4947414;29;20205;-85
2022/05/19 10:16:19;;;;;;;5.03;2.10;;;;;;;21.23;36.46;100463.66;4934321;29;20189;-84
2022/05/19 10:19:02;;;;;;;2.90;1.97;;;;;;;20.74;36.55;100464.41;4935009;29;20193;-85
2022/05/19 10:21:56;;;;;;;2.40;1.90;;;;;;;20.81;37.54;100461.97;4921472;29;20454;-85
2022/05/19 10:24:37;;;;;;;3.43;2.00;;;;;;;20.28;36.72;100357.13;4937010;29;20193;-85
2022/05/19 10:33:20;;;;;;;3.90;2.00;;;;;;;21.25;37.10;100433.63;4880258;29;20230;-85
2022/05/19 10:35:48;;;;;;;2.33;2.00;;;;;;;21.34;36.64;100432.09;4862443;29;20210;-85
2022/05/19 10:38:28;;;;;;;3.27;1.90;;;;;;;21.31;36.50;100419.16;4877401;29;20203;-85
2022/05/19 10:41:05;;;;;;;6.33;2.20;;;;;;;20.52;37.38;100275.25;4894518;29;20218;-86
2022/05/19 10:43:48;;;;;;;4.13;2.43;;;;;;;20.50;37.07;100261.50;4917302;29;20204;-86
2022/05/19 10:46:15;;;;;;;10.73;3.90;;;;;;;20.88;37.22;100283.63;4915345;29;20221;-85
2022/05/19 10:48:49;;;;;;;6.60;3.07;;;;;;;21.92;35.32;100426.13;4928994;29;21063;-84
2022/05/19 10:51:18;;;;;;;6.00;2.07;;;;;;;20.52;35.13;100164.63;4935161;29;20236;-85
2022/05/19 10:53:46;;;;;;;5.13;2.20;;;;;;;22.30;35.00;100426.69;4968315;28;20234;-84
2022/05/19 10:56:30;;;;;;;3.60;2.40;;;;;;;21.27;35.25;100422.50;4957857;28;20199;-85
2022/05/19 10:59:09;;;;;;;3.40;2.17;;;;;;;21.42;35.98;100420.19;4974171;28;20196;-85
2022/05/19 11:01:59;;;;;;;3.70;2.40;;;;;;;21.75;36.15;100418.13;4958068;28;20956;-85
2022/05/19 11:04:31;;;;;;;3.40;1.97;;;;;;;21.34;36.68;100408.03;4952354;28;20207;-87
2022/05/19 11:07:12;;;;;;;5.33;3.03;;;;;;;21.44;38.33;100415.94;4953027;29;20207;-85
2022/05/19 11:10:06;;;;;;;3.77;2.10;;;;;;;20.69;37.22;100317.59;4987270;28;20663;-84
2022/05/19 11:13:10;;;;;;;3.63;2.20;;;;;;;20.27;36.04;100194.22;5015065;28;20965;-85
2022/05/19 11:15:44;;;;;;;4.00;2.10;;;;;;;21.75;36.38;100401.81;5032627;28;20268;-85
2022/05/19 11:18:22;;;;;;;3.80;2.00;;;;;;;21.51;36.63;100402.28;5032186;28;20185;-85
2022/05/19 11:21:12;;;;;;;4.70;2.07;;;;;;;21.87;37.61;100395.97;5032503;28;20193;-85
2022/05/19 11:24:05;;;;;;;3.67;2.50;;;;;;;21.97;35.31;100268.91;5032167;28;20197;-85
2022/05/19 11:26:43;;;;;;;2.60;2.03;;;;;;;23.59;33.78;100392.75;5032024;28;20181;-85
2022/05/19 11:29:28;;;;;;;3.97;2.03;;;;;;;22.18;32.34;100145.34;5031685;28;20190;-84
2022/05/19 11:32:12;;;;;;;2.87;2.10;;;;;;;23.74;31.65;100382.50;5032225;28;20300;-84
2022/05/19 11:34:53;;;;;;;3.77;1.80;;;;;;;24.95;30.55;100377.84;5032196;28;20193;-86
2022/05/19 11:37:33;;;;;;;3.55;2.30;;;;;;;25.42;30.07;100294.00;5031924;28;20184;-88
2022/05/19 11:40:20;;;;;;;4.05;2.30;;;;;;;25.23;31.53;100369.22;5021693;28;20247;-84
2022/05/19 11:42:54;;;;;;;3.72;2.00;;;;;;;25.36;31.17;100358.84;5013977;28;20281;-85
2022/05/19 11:45:36;;;;;;;3.85;1.90;;;;;;;24.55;31.32;100308.69;5033123;28;20191;-85
2022/05/19 11:57:30;;;;;;;6.57;2.00;;;;;;;25.69;30.34;100354.50;5050979;28;20194;-85